sensor_id;sensor_type;location;lat;lon;timestamp;temperature;humidity
3194;DHT22;1608;50.860;13.466;2023-01-16T00:01:32;4.70;99.90
3194;DHT22;1608;50.860;13.466;2023-01-16T00:03:59;4.90;99.90
3194;DHT22;1608;50.860;13.466;2023-01-16T00:06:25;4.80;99.90
3194;DHT22;1608;50.860;13.466;2023-01-16T00:08:52;4.80;99.90
3194;DHT22;1608;50.860;13.466;2023-01-16T00:11:19;4.80;99.90
3194;DHT22;1608;50.860;13.466;2023-01-16T00:13:47;4.80;99.90
3194;DHT22;1608;50.860;13.466;2023-01-16T00:16:14;4.80;99.90
3194;DHT22;1608;50.860;13.466;2023-01-16T00:18:44;4.80;99.90
3194;DHT22;1608;50.860;13.466;2023-01-16T00:21:11;4.80;99.90
3194;DHT22;1608;50.860;13.466;2023-01-16T00:23:38;4.60;99.90
3194;DHT22;1608;50.860;13.466;2023-01-16T00:26:05;4.80;99.90
3194;DHT22;1608;50.860;13.466;2023-01-16T00:28:32;4.90;99.90
3194;DHT22;1608;50.860;13.466;2023-01-16T00:31:01;4.90;99.90
3194;DHT22;1608;50.860;13.466;2023-01-16T00:33:27;4.90;99.90
3194;DHT22;1608;50.860;13.466;2023-01-16T00:35:54;4.80;99.90
3194;DHT22;1608;50.860;13.466;2023-01-16T00:38:21;3.90;99.90
3194;DHT22;1608;50.860;13.466;2023-01-16T00:40:48;5.00;99.90
3194;DHT22;1608;50.860;13.466;2023-01-16T00:43:14;4.80;99.90
3194;DHT22;1608;50.860;13.466;2023-01-16T00:45:41;4.80;99.90
3194;DHT22;1608;50.860;13.466;2023-01-16T00:48:10;4.90;99.90
3194;DHT22;1608;50.860;13.466;2023-01-16T00:50:36;4.80;99.90
3194;DHT22;1608;50.860;13.466;2023-01-16T00:53:03;4.70;99.90
3194;DHT22;1608;50.860;13.466;2023-01-16T00:55:32;4.80;99.90
3194;DHT22;1608;50.860;13.466;2023-01-16T00:57:59;4.60;99.90
3194;DHT22;1608;50.860;13.466;2023-01-16T01:00:26;4.70;99.90
3194;DHT22;1608;50.860;13.466;2023-01-16T01:02:53;4.50;99.90
3194;DHT22;1608;50.860;13.466;2023-01-16T01:05:22;4.60;99.90
3194;DHT22;1608;50.860;13.466;2023-01-16T01:07:48;4.50;99.90
3194;DHT22;1608;50.860;13.466;2023-01-16T01:10:15;4.50;99.90
3194;DHT22;1608;50.860;13.466;2023-01-16T01:12:42;4.40;99.90
3194;DHT22;1608;50.860;13.466;2023-01-16T01:15:09;4.30;99.90
3194;DHT22;1608;50.860;13.466;2023-01-16T01:17:36;4.20;99.90
3194;DHT22;1608;50.860;13.466;2023-01-16T01:20:04;4.40;99.90
3194;DHT22;1608;50.860;13.466;2023-01-16T01:22:32;4.20;99.90
3194;DHT22;1608;50.860;13.466;2023-01-16T01:24:59;4.40;99.90
3194;DHT22;1608;50.860;13.466;2023-01-16T01:27:26;4.60;99.90
3194;DHT22;1608;50.860;13.466;2023-01-16T01:29:52;4.30;99.90
3194;DHT22;1608;50.860;13.466;2023-01-16T01:32:19;4.50;99.90
3194;DHT22;1608;50.860;13.466;2023-01-16T01:34:46;4.50;99.90
3194;DHT22;1608;50.860;13.466;2023-01-16T01:37:13;4.50;99.90
3194;DHT22;1608;50.860;13.466;2023-01-16T01:39:41;4.50;99.90
3194;DHT22;1608;50.860;13.466;2023-01-16T01:42:10;4.40;99.90
3194;DHT22;1608;50.860;13.466;2023-01-16T01:45:01;4.30;99.90
3194;DHT22;1608;50.860;13.466;2023-01-16T01:47:34;4.50;99.90
3194;DHT22;1608;50.860;13.466;2023-01-16T01:50:11;4.40;99.90
3194;DHT22;1608;50.860;13.466;2023-01-16T01:52:39;4.60;99.90
3194;DHT22;1608;50.860;13.466;2023-01-16T01:55:09;4.50;99.90
3194;DHT22;1608;50.860;13.466;2023-01-16T01:57:40;4.50;99.90
3194;DHT22;1608;50.860;13.466;2023-01-16T02:00:11;4.50;99.90
3194;DHT22;1608;50.860;13.466;2023-01-16T02:02:41;4.40;99.90
3194;DHT22;1608;50.860;13.466;2023-01-16T02:05:10;4.50;99.90
3194;DHT22;1608;50.860;13.466;2023-01-16T02:07:38;4.50;99.90
3194;DHT22;1608;50.860;13.466;2023-01-16T02:10:12;4.40;99.90
3194;DHT22;1608;50.860;13.466;2023-01-16T02:12:41;4.20;99.90
3194;DHT22;1608;50.860;13.466;2023-01-16T02:15:08;4.50;99.90
3194;DHT22;1608;50.860;13.466;2023-01-16T02:17:43;4.20;99.90
3194;DHT22;1608;50.860;13.466;2023-01-16T02:20:28;4.30;99.90
3194;DHT22;1608;50.860;13.466;2023-01-16T02:23:30;4.30;99.90
3194;DHT22;1608;50.860;13.466;2023-01-16T02:26:42;4.30;99.90
3194;DHT22;1608;50.860;13.466;2023-01-16T02:29:32;4.30;99.90
3194;DHT22;1608;50.860;13.466;2023-01-16T02:32:18;4.40;99.90
3194;DHT22;1608;50.860;13.466;2023-01-16T02:35:01;4.50;99.90
3194;DHT22;1608;50.860;13.466;2023-01-16T02:37:41;4.60;99.90
3194;DHT22;1608;50.860;13.466;2023-01-16T02:40:20;4.50;99.90
3194;DHT22;1608;50.860;13.466;2023-01-16T02:42:53;4.60;99.90
3194;DHT22;1608;50.860;13.466;2023-01-16T02:45:28;4.50;99.90
3194;DHT22;1608;50.860;13.466;2023-01-16T02:48:03;4.60;99.90
3194;DHT22;1608;50.860;13.466;2023-01-16T02:50:38;4.60;99.90
3194;DHT22;1608;50.860;13.466;2023-01-16T02:53:13;4.60;99.90
3194;DHT22;1608;50.860;13.466;2023-01-16T02:55:43;4.50;99.90
3194;DHT22;1608;50.860;13.466;2023-01-16T02:58:13;4.60;99.90
3194;DHT22;1608;50.860;13.466;2023-01-16T03:00:49;4.60;99.90
3194;DHT22;1608;50.860;13.466;2023-01-16T03:03:34;4.90;99.90
3194;DHT22;1608;50.860;13.466;2023-01-16T03:06:09;4.40;99.90
3194;DHT22;1608;50.860;13.466;2023-01-16T03:08:49;4.40;99.90
3194;DHT22;1608;50.860;13.466;2023-01-16T03:11:19;4.50;99.90
3194;DHT22;1608;50.860;13.466;2023-01-16T03:14:03;4.50;99.90
3194;DHT22;1608;50.860;13.466;2023-01-16T03:16:37;4.30;99.90
3194;DHT22;1608;50.860;13.466;2023-01-16T03:19:13;4.40;99.90
3194;DHT22;1608;50.860;13.466;2023-01-16T03:21:53;4.40;99.90
3194;DHT22;1608;50.860;13.466;2023-01-16T03:24:30;4.40;99.90
3194;DHT22;1608;50.860;13.466;2023-01-16T03:27:05;4.50;99.90
3194;DHT22;1608;50.860;13.466;2023-01-16T03:29:40;4.40;99.90
3194;DHT22;1608;50.860;13.466;2023-01-16T03:32:11;4.30;99.90
3194;DHT22;1608;50.860;13.466;2023-01-16T03:34:46;4.30;99.90
3194;DHT22;1608;50.860;13.466;2023-01-16T03:37:21;4.30;99.90
3194;DHT22;1608;50.860;13.466;2023-01-16T03:40:02;4.30;99.90
3194;DHT22;1608;50.860;13.466;2023-01-16T03:42:34;4.20;99.90
3194;DHT22;1608;50.860;13.466;2023-01-16T03:45:03;4.40;99.90
3194;DHT22;1608;50.860;13.466;2023-01-16T03:47:36;4.20;99.90
3194;DHT22;1608;50.860;13.466;2023-01-16T03:50:09;4.30;99.90
3194;DHT22;1608;50.860;13.466;2023-01-16T03:52:39;4.20;99.90
3194;DHT22;1608;50.860;13.466;2023-01-16T03:55:12;4.40;99.90
3194;DHT22;1608;50.860;13.466;2023-01-16T03:57:44;4.60;99.90
3194;DHT22;1608;50.860;13.466;2023-01-16T04:00:12;4.30;99.90
3194;DHT22;1608;50.860;13.466;2023-01-16T04:02:45;4.20;99.90
3194;DHT22;1608;50.860;13.466;2023-01-16T04:05:16;4.40;99.90
3194;DHT22;1608;50.860;13.466;2023-01-16T04:07:45;4.20;99.90
3194;DHT22;1608;50.860;13.466;2023-01-16T04:10:16;4.40;99.90
3194;DHT22;1608;50.860;13.466;2023-01-16T04:12:47;4.30;99.90
3194;DHT22;1608;50.860;13.466;2023-01-16T04:15:16;4.30;99.90
3194;DHT22;1608;50.860;13.466;2023-01-16T04:17:43;4.00;99.90
3194;DHT22;1608;50.860;13.466;2023-01-16T04:20:11;4.10;99.90
3194;DHT22;1608;50.860;13.466;2023-01-16T04:22:40;4.10;99.90
3194;DHT22;1608;50.860;13.466;2023-01-16T04:25:08;4.50;99.90
3194;DHT22;1608;50.860;13.466;2023-01-16T04:27:35;4.00;99.90
3194;DHT22;1608;50.860;13.466;2023-01-16T04:30:02;4.00;99.90
3194;DHT22;1608;50.860;13.466;2023-01-16T04:32:29;4.00;99.90
3194;DHT22;1608;50.860;13.466;2023-01-16T04:34:56;4.10;99.90
3194;DHT22;1608;50.860;13.466;2023-01-16T04:37:23;4.10;99.90
3194;DHT22;1608;50.860;13.466;2023-01-16T04:39:51;3.90;99.90
3194;DHT22;1608;50.860;13.466;2023-01-16T04:42:18;3.90;99.90
3194;DHT22;1608;50.860;13.466;2023-01-16T04:44:45;4.00;99.90
3194;DHT22;1608;50.860;13.466;2023-01-16T04:47:12;4.00;99.90
3194;DHT22;1608;50.860;13.466;2023-01-16T04:49:39;4.10;99.90
3194;DHT22;1608;50.860;13.466;2023-01-16T04:52:05;4.20;99.90
3194;DHT22;1608;50.860;13.466;2023-01-16T04:54:32;4.00;99.90
3194;DHT22;1608;50.860;13.466;2023-01-16T04:57:01;4.00;99.90
3194;DHT22;1608;50.860;13.466;2023-01-16T04:59:28;4.00;99.90
3194;DHT22;1608;50.860;13.466;2023-01-16T05:01:54;4.00;99.90
3194;DHT22;1608;50.860;13.466;2023-01-16T05:04:21;4.00;99.90
3194;DHT22;1608;50.860;13.466;2023-01-16T05:06:48;3.90;99.90
3194;DHT22;1608;50.860;13.466;2023-01-16T05:09:15;4.10;99.90
3194;DHT22;1608;50.860;13.466;2023-01-16T05:11:42;4.20;99.90
3194;DHT22;1608;50.860;13.466;2023-01-16T05:14:10;4.10;99.90
3194;DHT22;1608;50.860;13.466;2023-01-16T05:16:38;4.20;99.90
3194;DHT22;1608;50.860;13.466;2023-01-16T05:19:07;4.00;99.90
3194;DHT22;1608;50.860;13.466;2023-01-16T05:21:34;3.90;99.90
3194;DHT22;1608;50.860;13.466;2023-01-16T05:24:01;3.90;99.90
3194;DHT22;1608;50.860;13.466;2023-01-16T05:26:28;3.90;99.90
3194;DHT22;1608;50.860;13.466;2023-01-16T05:28:55;3.80;99.90
3194;DHT22;1608;50.860;13.466;2023-01-16T05:31:23;4.00;99.90
3194;DHT22;1608;50.860;13.466;2023-01-16T05:33:50;4.00;99.90
3194;DHT22;1608;50.860;13.466;2023-01-16T05:36:17;3.90;99.90
3194;DHT22;1608;50.860;13.466;2023-01-16T05:38:44;4.00;99.90
3194;DHT22;1608;50.860;13.466;2023-01-16T05:41:11;4.20;99.90
3194;DHT22;1608;50.860;13.466;2023-01-16T05:43:38;4.00;99.90
3194;DHT22;1608;50.860;13.466;2023-01-16T05:46:05;3.80;99.90
3194;DHT22;1608;50.860;13.466;2023-01-16T05:48:33;3.70;99.90
3194;DHT22;1608;50.860;13.466;2023-01-16T05:51:01;3.90;99.90
3194;DHT22;1608;50.860;13.466;2023-01-16T05:53:29;3.90;99.90
3194;DHT22;1608;50.860;13.466;2023-01-16T05:55:56;3.90;99.90
3194;DHT22;1608;50.860;13.466;2023-01-16T05:58:23;3.90;99.90
3194;DHT22;1608;50.860;13.466;2023-01-16T06:00:50;4.10;99.90
3194;DHT22;1608;50.860;13.466;2023-01-16T06:03:16;3.90;99.90
3194;DHT22;1608;50.860;13.466;2023-01-16T06:05:44;3.90;99.90
3194;DHT22;1608;50.860;13.466;2023-01-16T06:08:11;4.00;99.90
3194;DHT22;1608;50.860;13.466;2023-01-16T06:10:38;3.90;99.90
3194;DHT22;1608;50.860;13.466;2023-01-16T06:13:05;4.00;99.90
3194;DHT22;1608;50.860;13.466;2023-01-16T06:15:32;3.70;99.90
3194;DHT22;1608;50.860;13.466;2023-01-16T06:17:59;4.00;99.90
3194;DHT22;1608;50.860;13.466;2023-01-16T06:20:26;3.80;99.90
3194;DHT22;1608;50.860;13.466;2023-01-16T06:22:54;3.90;99.90
3194;DHT22;1608;50.860;13.466;2023-01-16T06:25:20;3.90;99.90
3194;DHT22;1608;50.860;13.466;2023-01-16T06:27:48;4.00;99.90
3194;DHT22;1608;50.860;13.466;2023-01-16T06:30:16;4.10;99.90
3194;DHT22;1608;50.860;13.466;2023-01-16T06:32:43;3.80;99.90
3194;DHT22;1608;50.860;13.466;2023-01-16T06:35:10;4.00;99.90
3194;DHT22;1608;50.860;13.466;2023-01-16T06:37:37;4.00;99.90
3194;DHT22;1608;50.860;13.466;2023-01-16T06:40:07;3.80;99.90
3194;DHT22;1608;50.860;13.466;2023-01-16T06:42:34;3.60;99.90
3194;DHT22;1608;50.860;13.466;2023-01-16T06:45:00;3.70;99.90
3194;DHT22;1608;50.860;13.466;2023-01-16T06:47:27;3.30;99.90
3194;DHT22;1608;50.860;13.466;2023-01-16T06:49:54;3.40;99.90
3194;DHT22;1608;50.860;13.466;2023-01-16T06:52:21;3.80;99.90
3194;DHT22;1608;50.860;13.466;2023-01-16T06:54:48;3.70;99.90
3194;DHT22;1608;50.860;13.466;2023-01-16T06:57:16;3.60;99.90
3194;DHT22;1608;50.860;13.466;2023-01-16T06:59:42;3.70;99.90
3194;DHT22;1608;50.860;13.466;2023-01-16T07:02:09;3.70;99.90
3194;DHT22;1608;50.860;13.466;2023-01-16T07:04:36;3.60;99.90
3194;DHT22;1608;50.860;13.466;2023-01-16T07:07:03;3.50;99.90
3194;DHT22;1608;50.860;13.466;2023-01-16T07:09:30;3.50;99.90
3194;DHT22;1608;50.860;13.466;2023-01-16T07:11:57;3.50;99.90
3194;DHT22;1608;50.860;13.466;2023-01-16T07:14:26;3.40;99.90
3194;DHT22;1608;50.860;13.466;2023-01-16T07:17:11;3.70;99.90
3194;DHT22;1608;50.860;13.466;2023-01-16T07:19:55;3.70;99.90
3194;DHT22;1608;50.860;13.466;2023-01-16T07:22:40;3.60;99.90
3194;DHT22;1608;50.860;13.466;2023-01-16T07:25:12;3.70;99.90
3194;DHT22;1608;50.860;13.466;2023-01-16T07:27:41;3.70;99.90
3194;DHT22;1608;50.860;13.466;2023-01-16T07:30:11;3.60;99.90
3194;DHT22;1608;50.860;13.466;2023-01-16T07:32:38;3.50;99.90
3194;DHT22;1608;50.860;13.466;2023-01-16T07:35:06;3.70;99.90
3194;DHT22;1608;50.860;13.466;2023-01-16T07:37:33;3.50;99.90
3194;DHT22;1608;50.860;13.466;2023-01-16T07:40:00;3.70;99.90
3194;DHT22;1608;50.860;13.466;2023-01-16T07:42:27;3.70;99.90
3194;DHT22;1608;50.860;13.466;2023-01-16T07:44:54;3.90;99.90
3194;DHT22;1608;50.860;13.466;2023-01-16T07:47:22;4.00;99.90
3194;DHT22;1608;50.860;13.466;2023-01-16T07:49:49;4.10;99.90
3194;DHT22;1608;50.860;13.466;2023-01-16T07:52:16;4.30;99.90
3194;DHT22;1608;50.860;13.466;2023-01-16T07:54:43;4.40;99.90
3194;DHT22;1608;50.860;13.466;2023-01-16T07:57:10;4.40;99.90
3194;DHT22;1608;50.860;13.466;2023-01-16T07:59:37;4.40;99.90
3194;DHT22;1608;50.860;13.466;2023-01-16T08:02:04;4.50;99.90
3194;DHT22;1608;50.860;13.466;2023-01-16T08:04:32;4.70;99.90
3194;DHT22;1608;50.860;13.466;2023-01-16T08:06:59;4.60;99.90
3194;DHT22;1608;50.860;13.466;2023-01-16T08:09:25;4.60;99.90
3194;DHT22;1608;50.860;13.466;2023-01-16T08:11:52;4.70;99.90
3194;DHT22;1608;50.860;13.466;2023-01-16T08:14:19;4.60;99.90
3194;DHT22;1608;50.860;13.466;2023-01-16T08:16:46;4.70;99.90
3194;DHT22;1608;50.860;13.466;2023-01-16T08:19:12;4.30;99.90
3194;DHT22;1608;50.860;13.466;2023-01-16T08:21:41;4.60;99.90
3194;DHT22;1608;50.860;13.466;2023-01-16T08:24:08;4.50;99.90
3194;DHT22;1608;50.860;13.466;2023-01-16T08:26:38;4.40;99.90
3194;DHT22;1608;50.860;13.466;2023-01-16T08:29:05;4.50;99.90
3194;DHT22;1608;50.860;13.466;2023-01-16T08:31:32;4.50;99.90
3194;DHT22;1608;50.860;13.466;2023-01-16T08:33:59;4.70;99.90
3194;DHT22;1608;50.860;13.466;2023-01-16T08:36:25;4.50;99.90
3194;DHT22;1608;50.860;13.466;2023-01-16T08:38:53;4.60;99.90
3194;DHT22;1608;50.860;13.466;2023-01-16T08:41:20;4.70;99.90
3194;DHT22;1608;50.860;13.466;2023-01-16T08:44:04;4.90;99.90
3194;DHT22;1608;50.860;13.466;2023-01-16T08:46:54;5.00;99.90
3194;DHT22;1608;50.860;13.466;2023-01-16T08:49:41;5.20;99.90
3194;DHT22;1608;50.860;13.466;2023-01-16T08:52:25;5.40;99.90
3194;DHT22;1608;50.860;13.466;2023-01-16T08:54:57;5.50;99.90
3194;DHT22;1608;50.860;13.466;2023-01-16T08:57:24;5.60;99.90
3194;DHT22;1608;50.860;13.466;2023-01-16T08:59:51;5.70;99.90
3194;DHT22;1608;50.860;13.466;2023-01-16T09:02:18;5.80;99.90
3194;DHT22;1608;50.860;13.466;2023-01-16T09:04:46;6.00;99.90
3194;DHT22;1608;50.860;13.466;2023-01-16T09:07:13;6.00;99.90
3194;DHT22;1608;50.860;13.466;2023-01-16T09:09:40;5.90;99.90
3194;DHT22;1608;50.860;13.466;2023-01-16T09:12:10;5.80;99.90
3194;DHT22;1608;50.860;13.466;2023-01-16T09:14:54;5.80;99.90
3194;DHT22;1608;50.860;13.466;2023-01-16T09:17:22;5.70;99.90
3194;DHT22;1608;50.860;13.466;2023-01-16T09:19:51;5.70;99.90
3194;DHT22;1608;50.860;13.466;2023-01-16T09:22:18;5.50;99.90
3194;DHT22;1608;50.860;13.466;2023-01-16T09:24:45;5.60;99.90
3194;DHT22;1608;50.860;13.466;2023-01-16T09:27:13;5.60;99.90
3194;DHT22;1608;50.860;13.466;2023-01-16T09:29:40;6.00;99.90
3194;DHT22;1608;50.860;13.466;2023-01-16T09:32:08;5.80;99.90
3194;DHT22;1608;50.860;13.466;2023-01-16T09:34:35;5.60;99.90
3194;DHT22;1608;50.860;13.466;2023-01-16T09:37:02;5.70;99.90
3194;DHT22;1608;50.860;13.466;2023-01-16T09:39:29;5.60;99.90
3194;DHT22;1608;50.860;13.466;2023-01-16T09:42:11;5.60;99.90
3194;DHT22;1608;50.860;13.466;2023-01-16T09:45:06;5.30;99.90
3194;DHT22;1608;50.860;13.466;2023-01-16T09:47:35;5.40;99.90
3194;DHT22;1608;50.860;13.466;2023-01-16T09:50:06;5.50;99.90
3194;DHT22;1608;50.860;13.466;2023-01-16T09:52:37;5.40;99.90
3194;DHT22;1608;50.860;13.466;2023-01-16T09:55:26;5.70;99.90
3194;DHT22;1608;50.860;13.466;2023-01-16T09:58:14;5.60;99.90
3194;DHT22;1608;50.860;13.466;2023-01-16T10:01:01;5.80;99.90
3194;DHT22;1608;50.860;13.466;2023-01-16T10:03:29;5.80;99.90
3194;DHT22;1608;50.860;13.466;2023-01-16T10:06:00;5.90;99.90
3194;DHT22;1608;50.860;13.466;2023-01-16T10:08:31;5.80;99.90
3194;DHT22;1608;50.860;13.466;2023-01-16T10:11:06;5.90;99.90
3194;DHT22;1608;50.860;13.466;2023-01-16T10:13:49;6.00;99.90
3194;DHT22;1608;50.860;13.466;2023-01-16T10:16:26;6.00;99.90
3194;DHT22;1608;50.860;13.466;2023-01-16T10:18:58;6.00;99.90
3194;DHT22;1608;50.860;13.466;2023-01-16T10:21:48;6.10;99.90
3194;DHT22;1608;50.860;13.466;2023-01-16T10:24:25;6.10;99.90
3194;DHT22;1608;50.860;13.466;2023-01-16T10:26:58;6.00;99.90
3194;DHT22;1608;50.860;13.466;2023-01-16T10:29:29;6.00;99.90
3194;DHT22;1608;50.860;13.466;2023-01-16T10:32:03;6.00;99.90
3194;DHT22;1608;50.860;13.466;2023-01-16T10:34:35;6.00;99.90
3194;DHT22;1608;50.860;13.466;2023-01-16T10:37:04;5.90;99.90
3194;DHT22;1608;50.860;13.466;2023-01-16T10:39:33;6.00;99.90
3194;DHT22;1608;50.860;13.466;2023-01-16T10:42:09;6.10;99.90
3194;DHT22;1608;50.860;13.466;2023-01-16T10:44:58;6.10;99.90
3194;DHT22;1608;50.860;13.466;2023-01-16T10:47:46;6.10;99.90
3194;DHT22;1608;50.860;13.466;2023-01-16T10:50:30;6.20;99.90
3194;DHT22;1608;50.860;13.466;2023-01-16T10:52:57;6.00;99.90
3194;DHT22;1608;50.860;13.466;2023-01-16T10:55:24;6.20;99.90
3194;DHT22;1608;50.860;13.466;2023-01-16T10:57:53;6.40;99.90
3194;DHT22;1608;50.860;13.466;2023-01-16T11:00:24;6.40;99.90
3194;DHT22;1608;50.860;13.466;2023-01-16T11:02:58;6.30;99.90
3194;DHT22;1608;50.860;13.466;2023-01-16T11:05:28;6.60;99.90
3194;DHT22;1608;50.860;13.466;2023-01-16T11:07:56;6.70;99.90
3194;DHT22;1608;50.860;13.466;2023-01-16T11:10:27;6.70;99.90
3194;DHT22;1608;50.860;13.466;2023-01-16T11:12:55;6.70;99.90
3194;DHT22;1608;50.860;13.466;2023-01-16T11:15:39;6.60;99.90
3194;DHT22;1608;50.860;13.466;2023-01-16T11:18:30;6.50;99.90
3194;DHT22;1608;50.860;13.466;2023-01-16T11:20:59;6.70;99.90
3194;DHT22;1608;50.860;13.466;2023-01-16T11:23:37;6.60;99.90
3194;DHT22;1608;50.860;13.466;2023-01-16T11:26:04;6.60;99.90
3194;DHT22;1608;50.860;13.466;2023-01-16T11:28:32;6.60;99.90
3194;DHT22;1608;50.860;13.466;2023-01-16T11:31:02;6.40;99.90
3194;DHT22;1608;50.860;13.466;2023-01-16T11:33:37;6.70;99.90
3194;DHT22;1608;50.860;13.466;2023-01-16T11:36:05;6.60;99.90
3194;DHT22;1608;50.860;13.466;2023-01-16T11:38:35;6.40;99.90
3194;DHT22;1608;50.860;13.466;2023-01-16T11:41:04;6.90;99.90
3194;DHT22;1608;50.860;13.466;2023-01-16T11:43:33;7.10;99.90
3194;DHT22;1608;50.860;13.466;2023-01-16T11:46:37;6.70;99.90
3194;DHT22;1608;50.860;13.466;2023-01-16T11:49:15;7.00;99.90
3194;DHT22;1608;50.860;13.466;2023-01-16T11:51:42;6.90;99.90
3194;DHT22;1608;50.860;13.466;2023-01-16T11:54:13;6.90;99.90
3194;DHT22;1608;50.860;13.466;2023-01-16T11:57:02;6.80;99.90
3194;DHT22;1608;50.860;13.466;2023-01-16T11:59:53;6.70;99.90
3194;DHT22;1608;50.860;13.466;2023-01-16T12:05:38;6.50;99.90
3194;DHT22;1608;50.860;13.466;2023-01-16T12:08:38;6.90;99.90
3194;DHT22;1608;50.860;13.466;2023-01-16T12:11:10;6.70;99.90
3194;DHT22;1608;50.860;13.466;2023-01-16T12:13:43;6.90;99.90
3194;DHT22;1608;50.860;13.466;2023-01-16T12:16:39;6.90;99.90
3194;DHT22;1608;50.860;13.466;2023-01-16T12:19:26;7.10;99.90
3194;DHT22;1608;50.860;13.466;2023-01-16T12:22:02;7.20;99.90
3194;DHT22;1608;50.860;13.466;2023-01-16T12:24:40;7.30;99.90
3194;DHT22;1608;50.860;13.466;2023-01-16T12:27:18;7.10;99.90
3194;DHT22;1608;50.860;13.466;2023-01-16T12:29:57;7.10;99.90
3194;DHT22;1608;50.860;13.466;2023-01-16T12:32:36;7.00;99.90
3194;DHT22;1608;50.860;13.466;2023-01-16T12:35:14;7.10;99.90
3194;DHT22;1608;50.860;13.466;2023-01-16T12:37:59;6.90;99.90
3194;DHT22;1608;50.860;13.466;2023-01-16T12:40:39;7.10;99.90
3194;DHT22;1608;50.860;13.466;2023-01-16T12:43:20;7.10;99.90
3194;DHT22;1608;50.860;13.466;2023-01-16T12:45:50;7.20;99.90
3194;DHT22;1608;50.860;13.466;2023-01-16T12:48:37;7.10;99.90
3194;DHT22;1608;50.860;13.466;2023-01-16T12:51:18;7.00;99.90
3194;DHT22;1608;50.860;13.466;2023-01-16T12:56:54;7.00;99.90
3194;DHT22;1608;50.860;13.466;2023-01-16T12:59:30;7.00;99.90
3194;DHT22;1608;50.860;13.466;2023-01-16T13:02:13;7.00;99.90
3194;DHT22;1608;50.860;13.466;2023-01-16T13:04:47;6.90;99.90
3194;DHT22;1608;50.860;13.466;2023-01-16T13:07:17;7.00;99.90
3194;DHT22;1608;50.860;13.466;2023-01-16T13:09:48;6.80;99.90
3194;DHT22;1608;50.860;13.466;2023-01-16T13:12:38;6.90;99.90
3194;DHT22;1608;50.860;13.466;2023-01-16T13:15:25;7.20;99.90
3194;DHT22;1608;50.860;13.466;2023-01-16T13:17:57;6.90;99.90
3194;DHT22;1608;50.860;13.466;2023-01-16T13:20:25;7.00;99.90
3194;DHT22;1608;50.860;13.466;2023-01-16T13:22:55;6.90;99.90
3194;DHT22;1608;50.860;13.466;2023-01-16T13:25:30;6.70;99.90
3194;DHT22;1608;50.860;13.466;2023-01-16T13:28:01;7.00;99.90
3194;DHT22;1608;50.860;13.466;2023-01-16T13:30:29;7.10;99.90
3194;DHT22;1608;50.860;13.466;2023-01-16T13:32:59;7.10;99.90
3194;DHT22;1608;50.860;13.466;2023-01-16T13:35:28;5.80;99.90
3194;DHT22;1608;50.860;13.466;2023-01-16T13:38:29;6.90;99.90
3194;DHT22;1608;50.860;13.466;2023-01-16T13:41:11;6.70;99.90
3194;DHT22;1608;50.860;13.466;2023-01-16T13:43:43;6.60;99.90
3194;DHT22;1608;50.860;13.466;2023-01-16T13:46:29;6.70;99.90
3194;DHT22;1608;50.860;13.466;2023-01-16T13:48:59;6.60;99.90
3194;DHT22;1608;50.860;13.466;2023-01-16T13:51:27;6.60;99.90
3194;DHT22;1608;50.860;13.466;2023-01-16T13:53:56;6.50;99.90
3194;DHT22;1608;50.860;13.466;2023-01-16T13:56:26;6.60;99.90
3194;DHT22;1608;50.860;13.466;2023-01-16T13:58:58;6.70;99.90
3194;DHT22;1608;50.860;13.466;2023-01-16T14:01:31;6.60;99.90
3194;DHT22;1608;50.860;13.466;2023-01-16T14:04:27;6.60;99.90
3194;DHT22;1608;50.860;13.466;2023-01-16T14:06:55;6.70;99.90
3194;DHT22;1608;50.860;13.466;2023-01-16T14:12:40;6.50;99.90
3194;DHT22;1608;50.860;13.466;2023-01-16T14:15:15;6.70;99.90
3194;DHT22;1608;50.860;13.466;2023-01-16T14:18:01;6.60;99.90
3194;DHT22;1608;50.860;13.466;2023-01-16T14:20:42;7.00;99.90
3194;DHT22;1608;50.860;13.466;2023-01-16T14:23:17;6.80;99.90
3194;DHT22;1608;50.860;13.466;2023-01-16T14:26:05;6.90;99.90
3194;DHT22;1608;50.860;13.466;2023-01-16T14:28:34;6.80;99.90
3194;DHT22;1608;50.860;13.466;2023-01-16T14:31:04;6.70;99.90
3194;DHT22;1608;50.860;13.466;2023-01-16T14:33:31;6.60;99.90
3194;DHT22;1608;50.860;13.466;2023-01-16T14:35:59;6.70;99.90
3194;DHT22;1608;50.860;13.466;2023-01-16T14:38:28;6.60;99.90
3194;DHT22;1608;50.860;13.466;2023-01-16T14:41:02;6.70;99.90
3194;DHT22;1608;50.860;13.466;2023-01-16T14:46:50;6.80;99.90
3194;DHT22;1608;50.860;13.466;2023-01-16T14:49:44;6.60;99.90
3194;DHT22;1608;50.860;13.466;2023-01-16T14:52:57;6.70;99.90
3194;DHT22;1608;50.860;13.466;2023-01-16T14:55:46;6.50;99.90
3194;DHT22;1608;50.860;13.466;2023-01-16T14:58:19;6.60;99.90
3194;DHT22;1608;50.860;13.466;2023-01-16T15:00:48;6.50;99.90
3194;DHT22;1608;50.860;13.466;2023-01-16T15:03:22;6.70;99.90
3194;DHT22;1608;50.860;13.466;2023-01-16T15:05:55;6.70;99.90
3194;DHT22;1608;50.860;13.466;2023-01-16T15:08:26;6.60;99.90
3194;DHT22;1608;50.860;13.466;2023-01-16T15:10:54;6.60;99.90
3194;DHT22;1608;50.860;13.466;2023-01-16T15:13:23;6.50;99.90
3194;DHT22;1608;50.860;13.466;2023-01-16T15:15:53;6.50;99.90
3194;DHT22;1608;50.860;13.466;2023-01-16T15:18:22;6.50;99.90
3194;DHT22;1608;50.860;13.466;2023-01-16T15:21:12;6.40;99.90
3194;DHT22;1608;50.860;13.466;2023-01-16T15:23:59;6.30;99.90
3194;DHT22;1608;50.860;13.466;2023-01-16T15:26:40;6.30;99.90
3194;DHT22;1608;50.860;13.466;2023-01-16T15:32:11;6.10;99.90
3194;DHT22;1608;50.860;13.466;2023-01-16T15:34:44;6.20;99.90
3194;DHT22;1608;50.860;13.466;2023-01-16T15:37:21;6.00;99.90
3194;DHT22;1608;50.860;13.466;2023-01-16T15:39:48;6.20;99.90
3194;DHT22;1608;50.860;13.466;2023-01-16T15:42:20;6.10;99.90
3194;DHT22;1608;50.860;13.466;2023-01-16T15:45:16;6.20;99.90
3194;DHT22;1608;50.860;13.466;2023-01-16T15:48:20;6.10;99.90
3194;DHT22;1608;50.860;13.466;2023-01-16T15:50:55;6.20;99.90
3194;DHT22;1608;50.860;13.466;2023-01-16T15:53:24;6.30;99.90
3194;DHT22;1608;50.860;13.466;2023-01-16T15:55:55;6.30;99.90
3194;DHT22;1608;50.860;13.466;2023-01-16T15:58:24;6.20;99.90
3194;DHT22;1608;50.860;13.466;2023-01-16T16:00:56;6.20;99.90
3194;DHT22;1608;50.860;13.466;2023-01-16T16:03:26;6.30;99.90
3194;DHT22;1608;50.860;13.466;2023-01-16T16:05:59;6.30;99.90
3194;DHT22;1608;50.860;13.466;2023-01-16T16:08:29;6.40;99.90
3194;DHT22;1608;50.860;13.466;2023-01-16T16:10:59;6.50;99.90
3194;DHT22;1608;50.860;13.466;2023-01-16T16:13:45;6.40;99.90
3194;DHT22;1608;50.860;13.466;2023-01-16T16:16:17;6.50;99.90
3194;DHT22;1608;50.860;13.466;2023-01-16T16:19:03;6.60;99.90
3194;DHT22;1608;50.860;13.466;2023-01-16T16:21:35;6.70;99.90
3194;DHT22;1608;50.860;13.466;2023-01-16T16:24:23;6.70;99.90
3194;DHT22;1608;50.860;13.466;2023-01-16T16:26:50;6.60;99.90
3194;DHT22;1608;50.860;13.466;2023-01-16T16:29:18;6.70;99.90
3194;DHT22;1608;50.860;13.466;2023-01-16T16:31:46;6.70;99.90
3194;DHT22;1608;50.860;13.466;2023-01-16T16:34:17;6.50;99.90
3194;DHT22;1608;50.860;13.466;2023-01-16T16:36:48;6.80;99.90
3194;DHT22;1608;50.860;13.466;2023-01-16T16:39:38;6.60;99.90
3194;DHT22;1608;50.860;13.466;2023-01-16T16:42:49;6.50;99.90
3194;DHT22;1608;50.860;13.466;2023-01-16T16:45:22;6.50;99.90
3194;DHT22;1608;50.860;13.466;2023-01-16T16:48:16;6.50;99.90
3194;DHT22;1608;50.860;13.466;2023-01-16T16:50:45;6.50;99.90
3194;DHT22;1608;50.860;13.466;2023-01-16T16:53:14;6.50;99.90